Time;durP1;ratioP1;P1;durP2;ratioP2;P2;SDS_P1;SDS_P2;PMS_P1;PMS_P2;Temp;Humidity;BMP_temperature;BMP_pressure;BME280_temperature;BME280_humidity;BME280_pressure;Samples;Min_cycle;Max_cycle;Signal;HPM_P1;HPM_P2
2023/03/22 00:01:22;;;;;;;152.70;113.90;;;;;;;7.29;100.00;98838.50;109588;1250;59741;-76
2023/03/22 00:03:51;;;;;;;150.10;109.40;;;;;;;7.22;100.00;98832.70;109638;1250;59636;-76
2023/03/22 00:06:18;;;;;;;145.10;105.60;;;;;;;7.14;100.00;98826.80;109664;1251;73546;-76
2023/03/22 00:08:49;;;;;;;146.80;104.80;;;;;;;7.07;100.00;98826.46;109644;1250;60984;-76
2023/03/22 00:11:17;;;;;;;149.00;103.10;;;;;;;7.00;100.00;98825.77;109629;1251;64843;-76
2023/03/22 00:13:45;;;;;;;147.10;105.80;;;;;;;6.96;100.00;98823.55;109544;1250;60095;-76
2023/03/22 00:16:13;;;;;;;142.50;101.30;;;;;;;6.92;100.00;98821.63;109614;1250;59819;-76
2023/03/22 00:18:40;;;;;;;145.60;101.40;;;;;;;6.89;100.00;98819.14;109391;1250;67495;-77
2023/03/22 00:21:13;;;;;;;136.70;98.40;;;;;;;6.87;100.00;98819.27;109559;1250;59842;-76
2023/03/22 00:23:40;;;;;;;137.90;97.20;;;;;;;6.84;100.00;98817.48;109652;1251;65051;-76
2023/03/22 00:26:08;;;;;;;136.90;97.00;;;;;;;6.81;100.00;98815.52;109548;1250;59926;-76
2023/03/22 00:28:35;;;;;;;131.20;95.60;;;;;;;6.78;100.00;98820.25;109641;1250;59972;-76
2023/03/22 00:31:03;;;;;;;130.70;93.50;;;;;;;6.75;100.00;98821.34;109621;1250;68018;-76
2023/03/22 00:33:30;;;;;;;126.50;90.70;;;;;;;6.71;100.00;98819.61;109641;1250;60045;-76
2023/03/22 00:36:00;;;;;;;124.50;91.10;;;;;;;6.67;100.00;98815.55;109658;1251;62529;-76
2023/03/22 00:38:35;;;;;;;124.00;92.90;;;;;;;6.63;100.00;98812.45;109607;1250;59869;-76
2023/03/22 00:41:07;;;;;;;129.70;93.20;;;;;;;6.58;100.00;98810.93;109636;1250;59697;-77
2023/03/22 00:43:35;;;;;;;116.30;86.20;;;;;;;6.53;100.00;98808.88;109673;1250;66768;-76
2023/03/22 00:46:01;;;;;;;116.90;86.00;;;;;;;6.48;100.00;98806.35;109625;1250;59839;-76
2023/03/22 00:48:28;;;;;;;111.20;82.70;;;;;;;6.42;100.00;98805.80;109611;1250;65068;-75
2023/03/22 00:50:55;;;;;;;127.40;92.40;;;;;;;6.37;100.00;98803.58;109633;1250;59818;-75
2023/03/22 00:53:21;;;;;;;128.30;92.40;;;;;;;6.35;100.00;98804.39;109613;1250;59906;-75
2023/03/22 00:55:48;;;;;;;132.10;93.40;;;;;;;6.36;100.00;98803.77;109612;1250;67518;-76
2023/03/22 00:58:14;;;;;;;120.90;90.40;;;;;;;6.38;100.00;98805.28;109638;1250;59906;-76
2023/03/22 01:00:43;;;;;;;127.60;91.90;;;;;;;6.38;100.00;98810.20;109591;1250;64129;-75
2023/03/22 01:03:12;;;;;;;136.10;98.10;;;;;;;6.39;100.00;98800.46;109638;1250;59727;-76
2023/03/22 01:05:39;;;;;;;141.90;99.90;;;;;;;6.39;100.00;98798.34;109632;1250;59847;-76
2023/03/22 01:08:09;;;;;;;143.10;103.90;;;;;;;6.38;100.00;98797.35;109637;1250;67843;-76
2023/03/22 01:10:40;;;;;;;146.90;102.30;;;;;;;6.36;100.00;98795.86;109612;1252;61332;-76
2023/03/22 01:13:09;;;;;;;141.90;102.40;;;;;;;6.32;100.00;98787.77;109623;1250;64743;-75
2023/03/22 01:15:36;;;;;;;142.20;101.10;;;;;;;6.27;100.00;98783.44;109589;1250;59804;-76
2023/03/22 01:18:03;;;;;;;136.30;98.30;;;;;;;6.21;100.00;98784.63;109583;1250;59829;-76
2023/03/22 01:20:31;;;;;;;141.10;102.10;;;;;;;6.14;100.00;98782.91;109674;1250;68007;-76
2023/03/22 01:22:58;;;;;;;138.70;99.80;;;;;;;6.06;100.00;98784.39;109641;1250;61627;-76
2023/03/22 01:25:25;;;;;;;139.20;99.70;;;;;;;5.97;100.00;98781.31;109624;1250;63672;-75
2023/03/22 01:27:52;;;;;;;130.40;93.80;;;;;;;5.89;100.00;98785.24;109622;1250;60116;-75
2023/03/22 01:30:19;;;;;;;130.70;94.00;;;;;;;5.81;100.00;98781.92;109390;1250;60106;-76
2023/03/22 01:32:46;;;;;;;127.00;92.40;;;;;;;5.73;100.00;98778.80;109662;1250;67876;-76
2023/03/22 01:35:13;;;;;;;136.30;97.80;;;;;;;5.66;100.00;98775.66;109620;1250;60479;-76
2023/03/22 01:37:40;;;;;;;142.70;102.50;;;;;;;5.60;100.00;98768.73;109631;1250;64023;-76
2023/03/22 01:40:11;;;;;;;143.50;105.20;;;;;;;5.54;100.00;98758.80;109093;1250;59803;-76
2023/03/22 01:42:38;;;;;;;152.70;111.00;;;;;;;5.48;100.00;98758.92;109598;1250;59877;-75
2023/03/22 01:45:34;;;;;;;143.10;105.90;;;;;;;5.43;100.00;98753.73;109623;1250;67635;-74
2023/03/22 01:48:07;;;;;;;144.20;103.00;;;;;;;5.38;100.00;98752.75;109642;1250;60741;-75
2023/03/22 01:50:36;;;;;;;141.70;101.80;;;;;;;5.36;100.00;98750.55;109581;1250;64850;-75
2023/03/22 01:53:04;;;;;;;152.80;109.50;;;;;;;5.35;100.00;98746.88;109600;1250;59902;-76
2023/03/22 01:55:32;;;;;;;158.40;114.00;;;;;;;5.36;100.00;98741.54;109606;1250;59791;-75
2023/03/22 01:58:00;;;;;;;162.10;115.80;;;;;;;5.38;100.00;98738.48;109648;1250;67827;-77
2023/03/22 02:00:27;;;;;;;159.50;111.10;;;;;;;5.38;100.00;98738.98;109635;1250;60524;-75
2023/03/22 02:02:54;;;;;;;157.40;108.70;;;;;;;5.38;100.00;98737.55;109355;1250;64748;-74
2023/03/22 02:05:23;;;;;;;156.70;109.30;;;;;;;5.38;100.00;98738.80;109643;1250;60212;-75
2023/03/22 02:07:51;;;;;;;150.10;106.00;;;;;;;5.37;100.00;98738.34;109662;1250;59666;-75
2023/03/22 02:10:23;;;;;;;161.80;113.40;;;;;;;5.34;100.00;98732.82;109326;1250;67555;-75
2023/03/22 02:13:14;;;;;;;209.50;114.40;;;;;;;5.33;100.00;98735.19;109667;1250;59853;-75
2023/03/22 02:15:51;;;;;;;337.80;112.20;;;;;;;5.35;100.00;98734.73;109690;1250;63812;-75
2023/03/22 02:18:38;;;;;;;341.40;113.70;;;;;;;5.36;100.00;98741.72;109592;1250;59752;-76
2023/03/22 02:21:23;;;;;;;334.70;110.80;;;;;;;5.37;100.00;98739.39;109626;1250;59948;-76
2023/03/22 02:23:58;;;;;;;365.70;105.90;;;;;;;5.37;100.00;98739.92;109628;1250;68246;-75
2023/03/22 02:26:48;;;;;;;293.70;108.50;;;;;;;5.37;100.00;98746.96;109350;1250;59815;-76
2023/03/22 02:29:28;;;;;;;229.80;102.40;;;;;;;5.35;100.00;98749.86;109595;1250;63705;-76
2023/03/22 02:32:16;;;;;;;191.90;98.40;;;;;;;5.33;100.00;98744.54;109343;1250;59838;-76
2023/03/22 02:35:02;;;;;;;220.10;99.40;;;;;;;5.26;100.00;98736.77;109602;1250;59863;-76
2023/03/22 02:37:40;;;;;;;186.40;93.20;;;;;;;5.16;100.00;98737.45;109644;1250;67651;-76
2023/03/22 02:40:16;;;;;;;193.70;93.40;;;;;;;5.06;100.00;98737.39;109656;1250;59848;-76
2023/03/22 02:43:07;;;;;;;231.20;95.60;;;;;;;4.98;100.00;98737.92;109596;1250;64849;-75
2023/03/22 02:46:01;;;;;;;199.40;91.40;;;;;;;4.91;100.00;98736.52;109439;1250;59840;-75
2023/03/22 02:48:34;;;;;;;138.60;86.60;;;;;;;4.85;100.00;98739.81;109674;1250;59741;-75
2023/03/22 02:51:12;;;;;;;167.90;86.50;;;;;;;4.78;100.00;98738.16;109602;1250;67574;-75
2023/03/22 02:54:07;;;;;;;173.50;83.60;;;;;;;4.71;100.00;98738.52;109634;1250;60934;-75
2023/03/22 02:56:43;;;;;;;184.90;82.70;;;;;;;4.66;100.00;98736.64;109643;1250;64750;-75
2023/03/22 02:59:11;;;;;;;227.70;85.00;;;;;;;4.63;100.00;98735.56;109629;1250;59813;-75
2023/03/22 03:01:51;;;;;;;174.80;86.60;;;;;;;4.59;100.00;98737.35;109617;1250;59954;-75
2023/03/22 03:04:28;;;;;;;236.40;86.20;;;;;;;4.54;100.00;98734.56;109331;1250;67449;-75
2023/03/22 03:06:59;;;;;;;228.20;82.40;;;;;;;4.51;100.00;98732.60;109611;1250;60166;-76
2023/03/22 03:09:27;;;;;;;189.10;81.20;;;;;;;4.47;100.00;98733.16;109632;1250;64032;-75
2023/03/22 03:11:54;;;;;;;171.80;80.70;;;;;;;4.41;100.00;98731.48;109407;1250;59780;-75
2023/03/22 03:14:27;;;;;;;175.90;78.10;;;;;;;4.35;100.00;98741.24;109595;1250;59890;-75
2023/03/22 03:17:19;;;;;;;158.40;74.70;;;;;;;4.28;100.00;98740.85;109650;1250;67527;-76
2023/03/22 03:20:10;;;;;;;167.30;71.00;;;;;;;4.22;100.00;98739.71;109570;1250;60795;-75
2023/03/22 03:23:14;;;;;;;212.80;71.00;;;;;;;4.15;100.00;98735.96;109585;1250;63796;-75
2023/03/22 03:26:03;;;;;;;178.70;70.80;;;;;;;4.09;100.00;98738.04;109647;1250;59808;-75
2023/03/22 03:28:51;;;;;;;181.50;73.10;;;;;;;4.03;100.00;98741.82;109607;1250;59869;-75
2023/03/22 03:31:30;;;;;;;186.40;71.00;;;;;;;4.01;100.00;98745.25;109550;1250;65282;-75
2023/03/22 03:34:12;;;;;;;151.00;66.80;;;;;;;4.00;100.00;98745.83;109656;1250;60776;-75
2023/03/22 03:36:45;;;;;;;172.90;64.30;;;;;;;3.96;100.00;98745.97;109596;1250;65325;-75
2023/03/22 03:39:14;;;;;;;150.10;64.30;;;;;;;3.91;100.00;98746.02;109602;1250;59847;-75
2023/03/22 03:41:45;;;;;;;154.00;64.40;;;;;;;3.86;100.00;98750.48;109651;1250;59911;-75
2023/03/22 03:44:14;;;;;;;134.90;65.30;;;;;;;3.81;100.00;98748.42;109608;1250;67597;-75
2023/03/22 03:46:41;;;;;;;125.80;63.10;;;;;;;3.78;100.00;98747.13;109662;1250;60818;-75
2023/03/22 03:49:10;;;;;;;155.10;63.20;;;;;;;3.76;100.00;98748.64;109326;1250;64724;-75
2023/03/22 03:51:52;;;;;;;145.90;61.00;;;;;;;3.75;100.00;98750.23;109584;1250;59763;-75
2023/03/22 03:54:19;;;;;;;143.10;60.00;;;;;;;3.71;100.00;98748.63;109614;1250;59803;-75
2023/03/22 03:56:47;;;;;;;153.80;58.70;;;;;;;3.69;100.00;98750.84;109612;1250;66569;-75
2023/03/22 03:59:17;;;;;;;157.60;59.10;;;;;;;3.69;100.00;98756.30;109650;1250;60607;-75
2023/03/22 04:01:51;;;;;;;;;;;;;;;3.70;100.00;98759.22;109627;1250;63647;-75
2023/03/22 04:04:25;;;;;;;111.40;54.20;;;;;;;3.71;100.00;98762.90;109638;1250;59786;-75
2023/03/22 04:06:58;;;;;;;144.90;56.70;;;;;;;3.72;100.00;98762.86;109602;1250;59821;-75
2023/03/22 04:09:27;;;;;;;146.80;57.40;;;;;;;3.73;100.00;98761.92;109569;1250;67268;-75
2023/03/22 04:11:55;;;;;;;154.70;62.00;;;;;;;3.75;100.00;98767.10;109597;1250;60795;-75
2023/03/22 04:14:22;;;;;;;158.90;61.90;;;;;;;3.75;100.00;98766.22;109651;1250;65063;-75
2023/03/22 04:16:49;;;;;;;176.30;59.30;;;;;;;3.72;100.00;98769.17;109599;1251;59779;-76
2023/03/22 04:19:16;;;;;;;149.40;60.80;;;;;;;3.67;100.00;98774.83;109641;1250;59606;-75
2023/03/22 04:21:44;;;;;;;146.50;59.20;;;;;;;3.67;100.00;98775.02;109613;1250;65257;-75
2023/03/22 04:24:12;;;;;;;142.20;60.30;;;;;;;3.70;100.00;98776.29;109607;1250;60120;-75
2023/03/22 04:26:39;;;;;;;96.60;58.70;;;;;;;3.72;100.00;98775.16;109400;1250;63772;-75
2023/03/22 04:29:06;;;;;;;110.00;59.20;;;;;;;3.74;100.00;98770.15;109595;1250;60047;-75
2023/03/22 04:31:34;;;;;;;110.90;56.90;;;;;;;3.77;100.00;98768.98;109639;1250;59906;-75
2023/03/22 04:34:04;;;;;;;102.20;57.80;;;;;;;3.79;100.00;98767.48;109658;1250;67818;-75
2023/03/22 04:36:35;;;;;;;107.30;63.00;;;;;;;3.82;100.00;98765.07;109668;1250;60229;-76
2023/03/22 04:39:04;;;;;;;102.50;62.40;;;;;;;3.81;100.00;98765.45;109622;1250;64748;-75
2023/03/22 04:41:33;;;;;;;96.40;65.10;;;;;;;3.84;100.00;98760.23;109446;1250;60110;-75
2023/03/22 04:44:03;;;;;;;103.50;65.70;;;;;;;3.87;100.00;98757.12;109662;1250;59657;-76
2023/03/22 04:46:30;;;;;;;99.70;60.50;;;;;;;3.89;100.00;98755.61;109630;1250;67802;-75
2023/03/22 04:48:57;;;;;;;91.60;56.10;;;;;;;3.90;100.00;98757.16;109632;1250;60839;-75
2023/03/22 04:51:25;;;;;;;133.00;60.20;;;;;;;3.90;100.00;98756.27;109565;1250;64749;-75
2023/03/22 04:53:52;;;;;;;113.80;61.70;;;;;;;3.92;100.00;98758.64;109556;1250;59711;-76
2023/03/22 04:56:19;;;;;;;96.80;63.40;;;;;;;3.94;100.00;98763.80;109626;1250;59775;-75
2023/03/22 04:58:46;;;;;;;90.40;63.20;;;;;;;3.99;100.00;98767.30;109602;1250;75944;-75
2023/03/22 05:01:15;;;;;;;94.60;59.90;;;;;;;4.03;100.00;98761.66;109640;1250;60866;-76
2023/03/22 05:03:47;;;;;;;88.20;60.00;;;;;;;4.07;100.00;98762.36;109654;1250;65421;-75
2023/03/22 05:06:14;;;;;;;88.90;59.00;;;;;;;4.13;100.00;98764.20;109442;1250;59722;-76
2023/03/22 05:08:41;;;;;;;90.10;58.90;;;;;;;4.22;100.00;98760.84;109638;1250;59815;-76
2023/03/22 05:11:11;;;;;;;87.70;60.20;;;;;;;4.31;100.00;98760.45;109610;1250;68066;-76
2023/03/22 05:13:39;;;;;;;90.20;60.60;;;;;;;4.37;100.00;98757.34;109594;1250;59809;-76
2023/03/22 05:16:06;;;;;;;88.30;61.00;;;;;;;4.44;100.00;98755.45;109604;1250;64836;-76
2023/03/22 05:18:33;;;;;;;92.20;63.70;;;;;;;4.54;100.00;98759.73;109641;1250;59761;-77
2023/03/22 05:21:02;;;;;;;88.10;61.60;;;;;;;4.61;100.00;98754.13;109661;1250;59846;-76
2023/03/22 05:23:32;;;;;;;92.70;62.70;;;;;;;4.67;100.00;98753.84;109635;1250;68444;-76
2023/03/22 05:26:00;;;;;;;90.10;60.80;;;;;;;4.73;100.00;98755.54;109625;1251;60713;-77
2023/03/22 05:28:27;;;;;;;97.40;65.60;;;;;;;4.78;100.00;98757.55;109580;1250;62647;-76
2023/03/22 05:30:54;;;;;;;90.50;61.20;;;;;;;4.85;100.00;98757.95;109668;1250;59710;-75
2023/03/22 05:33:21;;;;;;;85.80;61.40;;;;;;;4.92;100.00;98758.65;109694;1250;60007;-75
2023/03/22 05:35:49;;;;;;;86.10;60.30;;;;;;;5.01;100.00;98756.10;109633;1250;67537;-75
2023/03/22 05:38:16;;;;;;;79.80;57.20;;;;;;;5.13;100.00;98750.61;109633;1250;59826;-75
2023/03/22 05:40:43;;;;;;;90.80;61.90;;;;;;;5.24;100.00;98751.81;109665;1250;65078;-75
2023/03/22 05:43:10;;;;;;;85.40;58.60;;;;;;;5.33;100.00;98747.70;109644;1250;59878;-75
2023/03/22 05:45:37;;;;;;;80.30;56.40;;;;;;;5.39;100.00;98746.70;109613;1250;60272;-76
2023/03/22 05:48:04;;;;;;;81.90;57.50;;;;;;;5.45;100.00;98749.35;109591;1250;67462;-76
2023/03/22 05:50:31;;;;;;;79.50;56.50;;;;;;;5.53;100.00;98753.40;109687;1250;60738;-75
2023/03/22 05:52:58;;;;;;;79.80;57.80;;;;;;;5.59;100.00;98755.91;109645;1250;64898;-73
2023/03/22 05:55:25;;;;;;;77.90;56.80;;;;;;;5.62;100.00;98754.13;109630;1250;59991;-74
2023/03/22 05:57:53;;;;;;;80.90;58.20;;;;;;;5.62;100.00;98755.39;109664;1250;59832;-74
2023/03/22 06:00:20;;;;;;;80.20;57.90;;;;;;;5.65;100.00;98755.42;109631;1250;67872;-74
2023/03/22 06:02:51;;;;;;;83.80;58.90;;;;;;;5.71;100.00;98753.19;109636;1250;60703;-74
2023/03/22 06:05:19;;;;;;;82.60;58.30;;;;;;;5.79;100.00;98749.59;109593;1250;64711;-75
2023/03/22 06:07:46;;;;;;;84.80;59.00;;;;;;;5.87;100.00;98746.36;109298;1250;59845;-74
2023/03/22 06:10:14;;;;;;;81.10;57.90;;;;;;;5.97;100.00;98748.16;109618;1250;59984;-74
2023/03/22 06:12:40;;;;;;;83.80;58.70;;;;;;;6.08;100.00;98749.55;109612;1250;66471;-74
2023/03/22 06:15:08;;;;;;;82.00;60.40;;;;;;;6.20;100.00;98748.02;109379;1250;60726;-74
2023/03/22 06:17:34;;;;;;;82.30;57.20;;;;;;;6.32;100.00;98750.39;109608;1250;64103;-74
2023/03/22 06:20:10;;;;;;;82.80;56.00;;;;;;;6.42;100.00;98759.36;109542;1250;59734;-76
2023/03/22 06:22:37;;;;;;;78.10;56.80;;;;;;;6.64;100.00;98756.77;109596;1250;59859;-74
2023/03/22 06:25:05;;;;;;;74.70;57.50;;;;;;;6.88;100.00;98758.46;109646;1250;67758;-75
2023/03/22 06:27:32;;;;;;;74.50;58.00;;;;;;;7.08;100.00;98755.40;109643;1250;60140;-74
2023/03/22 06:29:59;;;;;;;65.90;52.90;;;;;;;7.26;100.00;98755.40;109637;1250;65035;-74
2023/03/22 06:32:26;;;;;;;67.90;53.30;;;;;;;7.46;100.00;98755.48;109628;1250;60087;-74
2023/03/22 06:34:53;;;;;;;64.80;53.00;;;;;;;7.59;100.00;98752.44;109577;1250;59901;-75
2023/03/22 06:37:22;;;;;;;69.10;54.50;;;;;;;7.78;100.00;98747.27;109638;1250;66875;-75
2023/03/22 06:39:52;;;;;;;62.50;53.30;;;;;;;8.00;100.00;98745.59;109631;1250;59832;-75
2023/03/22 06:42:19;;;;;;;78.60;62.40;;;;;;;8.18;100.00;98748.77;109263;1252;62917;-75
2023/03/22 06:44:46;;;;;;;59.40;50.90;;;;;;;8.26;100.00;98753.77;109508;1252;59816;-75
2023/03/22 06:47:13;;;;;;;60.40;50.40;;;;;;;8.31;100.00;98750.58;109508;1252;59933;-75
2023/03/22 06:49:39;;;;;;;53.40;47.10;;;;;;;8.34;100.00;98751.66;109525;1252;67834;-75
2023/03/22 06:52:06;;;;;;;58.00;51.70;;;;;;;8.40;100.00;98751.52;109508;1252;60200;-74
2023/03/22 06:54:33;;;;;;;53.70;46.90;;;;;;;8.44;100.00;98751.43;109510;1252;64180;-75
2023/03/22 06:56:59;;;;;;;58.10;50.30;;;;;;;8.57;100.00;98751.16;109264;1254;59918;-74
2023/03/22 06:59:26;;;;;;;71.50;58.10;;;;;;;8.72;100.00;98751.98;109004;1254;59813;-75
2023/03/22 07:01:53;;;;;;;77.30;68.80;;;;;;;8.85;100.00;98753.08;109261;1254;66929;-74
2023/03/22 07:04:20;;;;;;;105.80;94.80;;;;;;;8.95;100.00;98750.34;109278;1254;60191;-75
2023/03/22 07:06:47;;;;;;;49.80;43.60;;;;;;;9.05;100.00;98752.39;109262;1254;62413;-75
2023/03/22 07:09:13;;;;;;;48.80;41.80;;;;;;;9.12;100.00;98755.29;109266;1254;59793;-75
2023/03/22 07:11:40;;;;;;;47.80;40.90;;;;;;;9.19;100.00;98758.70;109298;1254;59898;-75
2023/03/22 07:14:08;;;;;;;48.40;43.10;;;;;;;9.26;100.00;98757.73;109322;1254;67530;-74
2023/03/22 07:16:35;;;;;;;66.90;60.00;;;;;;;9.33;100.00;98754.65;109323;1254;59944;-74
2023/03/22 07:19:02;;;;;;;54.20;48.70;;;;;;;9.39;100.00;98749.08;109233;1254;64150;-74
2023/03/22 07:21:29;;;;;;;49.20;43.90;;;;;;;9.49;100.00;98753.21;109241;1255;59880;-74
2023/03/22 07:23:57;;;;;;;49.00;44.00;;;;;;;9.58;100.00;98754.20;109230;1255;60291;-75
2023/03/22 07:26:25;;;;;;;41.80;36.40;;;;;;;9.70;100.00;98749.66;109291;1254;67562;-76
2023/03/22 07:28:52;;;;;;;44.50;39.80;;;;;;;9.84;100.00;98748.71;109196;1253;59837;-76
2023/03/22 07:31:19;;;;;;;40.20;35.90;;;;;;;10.03;100.00;98750.98;109550;1251;73652;-74
2023/03/22 07:33:47;;;;;;;39.00;34.90;;;;;;;10.11;100.00;98749.71;109533;1253;60169;-74
2023/03/22 07:36:14;;;;;;;37.30;33.40;;;;;;;10.25;100.00;98750.20;109526;1251;59749;-75
2023/03/22 07:38:40;;;;;;;33.90;30.30;;;;;;;10.41;100.00;98745.51;109312;1251;67995;-77
2023/03/22 07:41:07;;;;;;;32.70;29.40;;;;;;;10.47;100.00;98744.36;109522;1252;61072;-77
2023/03/22 07:43:36;;;;;;;33.00;29.60;;;;;;;10.51;100.00;98743.76;109634;1250;65288;-77
2023/03/22 07:46:02;;;;;;;75.70;54.50;;;;;;;10.53;100.00;98739.90;109437;1250;60181;-77
2023/03/22 07:48:30;;;;;;;44.30;39.60;;;;;;;10.57;100.00;98739.80;109613;1250;59927;-76
2023/03/22 07:50:57;;;;;;;50.70;45.30;;;;;;;10.65;100.00;98735.68;109641;1250;65608;-78
2023/03/22 07:53:24;;;;;;;35.70;32.20;;;;;;;10.74;100.00;98737.86;109280;1250;60781;-77
2023/03/22 07:55:51;;;;;;;42.80;38.50;;;;;;;10.84;100.00;98738.20;109337;1250;64396;-76
2023/03/22 07:58:17;;;;;;;34.40;30.80;;;;;;;10.94;100.00;98735.52;109611;1250;60032;-76
2023/03/22 08:00:44;;;;;;;32.30;28.70;;;;;;;11.06;100.00;98736.82;109637;1250;59811;-77
2023/03/22 08:03:12;;;;;;;33.90;27.30;;;;;;;11.13;100.00;98738.55;109666;1250;66452;-77
2023/03/22 08:05:40;;;;;;;33.20;28.30;;;;;;;11.19;100.00;98736.69;109604;1250;59762;-78
2023/03/22 08:08:07;;;;;;;32.10;28.80;;;;;;;11.21;100.00;98739.59;109627;1250;64971;-78
2023/03/22 08:10:34;;;;;;;33.30;29.70;;;;;;;11.25;100.00;98736.33;109604;1250;59826;-77
2023/03/22 08:13:01;;;;;;;31.00;27.80;;;;;;;11.31;100.00;98731.92;109620;1250;59674;-77
2023/03/22 08:15:27;;;;;;;35.10;30.70;;;;;;;11.39;100.00;98732.18;109640;1250;67458;-77
2023/03/22 08:17:56;;;;;;;33.20;29.70;;;;;;;11.47;100.00;98735.34;109634;1250;59791;-77
2023/03/22 08:20:26;;;;;;;33.20;29.90;;;;;;;11.60;100.00;98733.68;109322;1250;63842;-78
2023/03/22 08:22:53;;;;;;;34.70;29.30;;;;;;;11.77;100.00;98726.67;109454;1250;59803;-78
2023/03/22 08:25:20;;;;;;;31.80;28.50;;;;;;;11.94;100.00;98726.73;109606;1250;59806;-78
2023/03/22 08:27:47;;;;;;;32.50;29.20;;;;;;;12.10;100.00;98727.04;109649;1250;67110;-78
2023/03/22 08:30:14;;;;;;;33.10;29.70;;;;;;;12.29;100.00;98723.05;109590;1250;60693;-77
2023/03/22 08:32:40;;;;;;;33.90;29.90;;;;;;;12.44;100.00;98725.30;109230;1250;65319;-78
2023/03/22 08:35:08;;;;;;;34.60;31.00;;;;;;;12.60;100.00;98723.83;109613;1250;59783;-77
2023/03/22 08:37:35;;;;;;;38.90;34.70;;;;;;;12.83;100.00;98722.91;109627;1250;60537;-77
2023/03/22 08:40:05;;;;;;;37.50;33.30;;;;;;;13.06;100.00;98725.69;109633;1250;67533;-76
2023/03/22 08:42:32;;;;;;;34.50;30.90;;;;;;;13.20;100.00;98723.46;109690;1249;60914;-77
2023/03/22 08:44:59;;;;;;;32.70;29.20;;;;;;;13.34;100.00;98728.04;109616;1250;65100;-77
2023/03/22 08:47:25;;;;;;;31.90;28.50;;;;;;;13.46;100.00;98732.45;109598;1250;59729;-77
2023/03/22 08:49:52;;;;;;;30.30;27.10;;;;;;;13.64;100.00;98727.53;109633;1250;59823;-76
2023/03/22 08:52:19;;;;;;;32.10;29.00;;;;;;;13.80;100.00;98728.27;109341;1250;66648;-78
2023/03/22 08:54:45;;;;;;;31.80;28.70;;;;;;;14.00;100.00;98728.02;109604;1250;60761;-77
2023/03/22 08:57:13;;;;;;;31.80;28.40;;;;;;;14.18;100.00;98727.80;109408;1250;64779;-78
2023/03/22 08:59:39;;;;;;;32.30;29.20;;;;;;;14.23;100.00;98728.02;109612;1250;59790;-77
2023/03/22 09:02:07;;;;;;;33.90;30.40;;;;;;;14.33;100.00;98726.48;109337;1250;59826;-77
2023/03/22 09:04:34;;;;;;;32.00;28.80;;;;;;;14.33;100.00;98723.56;109664;1250;67850;-76
2023/03/22 09:07:01;;;;;;;33.80;29.40;;;;;;;14.37;100.00;98723.84;109603;1250;61053;-75
2023/03/22 09:09:28;;;;;;;37.10;32.90;;;;;;;14.44;100.00;98721.91;109390;1250;64908;-75
2023/03/22 09:11:55;;;;;;;42.20;37.70;;;;;;;14.52;100.00;98722.35;109621;1250;59898;-75
2023/03/22 09:14:21;;;;;;;37.00;33.20;;;;;;;14.64;100.00;98722.02;109567;1250;59635;-73
2023/03/22 09:16:48;;;;;;;34.10;30.80;;;;;;;14.74;100.00;98720.56;109575;1250;67631;-76
2023/03/22 09:19:15;;;;;;;35.50;31.90;;;;;;;14.86;100.00;98717.75;109669;1250;59810;-76
2023/03/22 09:21:41;;;;;;;33.70;30.30;;;;;;;14.84;100.00;98713.61;109673;1250;64840;-76
2023/03/22 09:24:08;;;;;;;35.00;31.40;;;;;;;14.81;100.00;98711.71;109590;1250;59739;-76
2023/03/22 09:26:35;;;;;;;36.20;32.40;;;;;;;14.78;100.00;98709.50;109630;1250;59761;-76
2023/03/22 09:29:02;;;;;;;35.70;31.90;;;;;;;14.72;100.00;98705.54;109671;1250;66689;-77
2023/03/22 09:31:29;;;;;;;35.10;31.40;;;;;;;14.67;100.00;98703.50;109742;1250;60718;-76
2023/03/22 09:33:56;;;;;;;33.20;29.80;;;;;;;14.68;100.00;98696.81;109786;1250;63750;-76
2023/03/22 09:36:22;;;;;;;32.80;29.50;;;;;;;14.73;100.00;98694.93;109417;1250;59852;-76
2023/03/22 09:38:49;;;;;;;35.70;32.00;;;;;;;14.79;100.00;98693.80;109656;1250;59810;-77
2023/03/22 09:41:26;;;;;;;36.10;32.30;;;;;;;14.91;100.00;98692.77;109590;1250;67064;-76
2023/03/22 09:43:59;;;;;;;34.40;31.00;;;;;;;15.10;100.00;98690.55;109670;1250;61127;-77
2023/03/22 09:46:33;;;;;;;35.40;31.80;;;;;;;15.28;100.00;98690.33;109627;1250;64712;-76
2023/03/22 09:49:01;;;;;;;66.60;59.70;;;;;;;15.38;100.00;98695.55;109413;1250;59821;-76
2023/03/22 09:51:42;;;;;;;63.70;57.70;;;;;;;15.45;100.00;98692.48;109509;1250;59830;-77
2023/03/22 09:54:18;;;;;;;38.50;34.40;;;;;;;15.50;100.00;98689.73;109539;1250;67883;-77
2023/03/22 09:57:07;;;;;;;36.50;32.60;;;;;;;15.51;100.00;98689.67;109661;1250;60046;-76
2023/03/22 09:59:47;;;;;;;34.80;31.30;;;;;;;15.54;100.00;98683.45;109630;1250;64883;-77
2023/03/22 10:02:39;;;;;;;37.40;33.40;;;;;;;15.67;100.00;98681.57;109630;1250;59873;-77
2023/03/22 10:05:08;;;;;;;33.90;30.50;;;;;;;15.73;100.00;98681.54;109635;1250;59955;-78
2023/03/22 10:07:46;;;;;;;33.40;30.00;;;;;;;15.84;100.00;98676.11;109635;1250;68004;-77
2023/03/22 10:10:18;;;;;;;33.80;30.30;;;;;;;15.98;100.00;98668.67;109550;1249;60037;-77
2023/03/22 10:13:20;;;;;;;29.20;26.20;;;;;;;16.11;100.00;98664.87;109611;1250;65040;-77
2023/03/22 10:15:53;;;;;;;32.60;27.20;;;;;;;16.29;100.00;98665.14;109680;1250;59734;-77
2023/03/22 10:18:23;;;;;;;28.60;25.40;;;;;;;16.40;100.00;98665.46;109626;1250;59902;-77
2023/03/22 10:21:01;;;;;;;;;;;;;;;16.50;100.00;98662.09;109693;1250;67970;-77
2023/03/22 10:23:55;;;;;;;28.00;25.00;;;;;;;16.61;100.00;98662.25;109665;1250;60061;-77
2023/03/22 10:26:50;;;;;;;27.90;24.90;;;;;;;16.81;100.00;98656.77;109597;1250;64106;-77
2023/03/22 10:29:19;;;;;;;26.90;24.20;;;;;;;16.98;100.00;98652.23;108900;1258;60086;-76
2023/03/22 10:31:46;;;;;;;28.90;25.90;;;;;;;17.12;100.00;98649.14;108945;1258;59936;-76
2023/03/22 10:34:20;;;;;;;27.20;24.00;;;;;;;17.30;100.00;98650.58;108906;1258;66608;-76
2023/03/22 10:36:50;;;;;;;26.50;23.90;;;;;;;17.50;100.00;98650.17;108969;1258;60008;-77
2023/03/22 10:39:35;;;;;;;25.20;22.50;;;;;;;17.59;100.00;98646.30;108931;1258;63730;-77
2023/03/22 10:42:10;;;;;;;25.30;22.60;;;;;;;17.65;100.00;98642.82;108905;1258;60009;-78
2023/03/22 10:44:51;;;;;;;20.90;18.90;;;;;;;17.77;100.00;98636.70;108936;1258;59877;-77
2023/03/22 10:47:25;;;;;;;19.20;17.20;;;;;;;17.86;100.00;98636.15;108909;1258;68060;-77
2023/03/22 10:49:54;;;;;;;17.30;15.60;;;;;;;17.86;100.00;98636.55;108922;1258;60191;-78
2023/03/22 10:52:40;;;;;;;17.90;16.00;;;;;;;17.81;100.00;98629.86;108824;1258;140164;-77
2023/03/22 10:55:15;;;;;;;17.10;15.30;;;;;;;17.83;100.00;98626.12;108900;1258;59940;-78
2023/03/22 10:58:07;;;;;;;15.90;14.00;;;;;;;17.87;100.00;98622.80;108908;1258;59860;-77
2023/03/22 11:00:34;;;;;;;15.80;14.00;;;;;;;17.77;100.00;98623.76;108929;1258;67893;-77
2023/03/22 11:03:01;;;;;;;19.30;14.70;;;;;;;17.59;100.00;98629.00;108941;1262;60735;-77
2023/03/22 11:05:29;;;;;;;16.30;14.80;;;;;;;17.43;100.00;98627.02;108950;1250;63837;-77
2023/03/22 11:07:57;;;;;;;15.80;14.20;;;;;;;17.29;100.00;98627.58;109611;1250;59788;-78
2023/03/22 11:10:31;;;;;;;16.70;15.10;;;;;;;17.21;100.00;98625.64;109612;1250;59836;-77
2023/03/22 11:13:07;;;;;;;15.30;13.70;;;;;;;17.13;100.00;98624.49;109667;1250;65222;-77
2023/03/22 11:15:39;;;;;;;16.40;14.80;;;;;;;17.12;100.00;98625.86;109685;1250;60866;-76
2023/03/22 11:18:14;;;;;;;16.30;14.60;;;;;;;17.21;100.00;98620.44;109605;1250;64231;-77